Roosevelt Roads NAS, Puerto Rico
Current Conditions -  °F | °C
As of 5:53 PM on Monday 20 Oct 2014 (Local Time) from TJNR Reporting Station
Clear Clear  
Wind Chill: 81°   Ceiling: Unl
Heat Index: 86°   Visibility: 10mi
Dew Point: 73°   Wind: 6mph
Humidity: 77%   Direction: 50°NE
Pressure: 29.94"   Gusts: NA
Location:  18.25°N, 65.63°W
Report Text: TJNR 202153Z AUTO 05005KT 10SM CLR 27/23 A2994 RMK AO2 SLP139 T02720228
Loading
Personal Weather Stations






























Interactive Weather Map
Tropical Storm Tracking
New forecast layout! Learn more

10-Day Weather Forecast

Advertisements
Track Severe Weather on mobile